Time;durP1;ratioP1;P1;durP2;ratioP2;P2;SDS_P1;SDS_P2;PMS_P1;PMS_P2;Temp;Humidity;BMP_temperature;BMP_pressure;BME280_temperature;BME280_humidity;BME280_pressure;Samples;Min_cycle;Max_cycle;Signal;HPM_P1;HPM_P2
2022/03/31 00:02:20;;;;;;;27.45;8.88;;;;;;;5.68;100.00;99165.06;4968589;28;20205;-75
2022/03/31 00:04:48;;;;;;;13.35;6.93;;;5.60;99.90;;;5.76;100.00;99176.47;4970228;28;20224;-76
2022/03/31 00:07:16;;;;;;;20.00;12.70;;;;;;;5.78;100.00;99179.13;4969328;28;20220;-76
2022/03/31 00:09:44;;;;;;;20.48;12.95;;;5.90;99.90;;;5.81;100.00;99180.88;4968191;28;20210;-76
2022/03/31 00:12:12;;;;;;;21.48;14.07;;;;;;;5.76;100.00;99186.09;4968878;28;20205;-77
2022/03/31 00:14:41;;;;;;;20.48;10.93;;;5.80;99.90;;;5.70;100.00;99178.19;4965956;28;20221;-76
2022/03/31 00:17:10;;;;;;;18.52;11.05;;;;;;;5.63;100.00;99184.25;4971254;28;20581;-76
2022/03/31 00:19:38;;;;;;;22.02;9.38;;;;;;;5.59;100.00;99187.69;4967186;28;20205;-76
2022/03/31 00:22:06;;;;;;;22.33;15.98;;;5.70;99.90;;;5.63;100.00;99192.09;4973477;28;20202;-76
2022/03/31 00:24:34;;;;;;;10.38;9.38;;;5.40;99.90;;;5.63;100.00;99192.97;4964349;28;20255;-76
2022/03/31 00:27:02;;;;;;;18.63;11.15;;;;;;;5.55;100.00;99192.03;4963271;28;20249;-76
2022/03/31 00:29:31;;;;;;;16.05;14.45;;;;;;;5.49;100.00;99189.34;4936464;28;20201;-76
2022/03/31 00:31:59;;;;;;;16.35;9.75;;;;;;;5.49;100.00;99194.59;4966744;28;20197;-75
2022/03/31 00:34:28;;;;;;;22.10;9.55;;;6.10;99.90;;;5.49;100.00;99199.84;4968471;28;20701;-75
2022/03/31 00:36:56;;;;;;;12.35;4.70;;;5.80;99.90;;;5.46;100.00;99205.94;4954988;28;20210;-76
2022/03/31 00:39:31;;;;;;;7.00;3.17;;;5.60;99.90;;;5.49;100.00;99205.09;4966479;28;20210;-76
2022/03/31 00:42:04;;;;;;;10.40;3.92;;;5.50;99.90;;;5.50;100.00;99211.22;4966705;28;20200;-77
2022/03/31 00:44:32;;;;;;;11.98;4.30;;;5.40;99.90;;;5.55;100.00;99214.75;4971701;28;20229;-76
2022/03/31 00:47:00;;;;;;;8.80;3.25;;;;;;;5.60;100.00;99221.81;4966341;28;20218;-76
2022/03/31 00:49:29;;;;;;;19.95;5.03;;;5.40;99.90;;;5.61;100.00;99220.06;4964164;28;20213;-76
2022/03/31 00:51:58;;;;;;;7.13;3.25;;;5.80;99.90;;;5.62;100.00;99219.19;4963957;28;20209;-76
2022/03/31 00:54:27;;;;;;;8.18;3.03;;;5.70;99.90;;;5.59;100.00;99221.78;4966375;28;20240;-76
2022/03/31 00:56:58;;;;;;;13.70;5.00;;;5.70;99.90;;;5.60;100.00;99216.56;4971531;28;20205;-76
2022/03/31 00:59:26;;;;;;;16.35;6.32;;;;;;;5.55;100.00;99214.75;4970871;28;20216;-76
2022/03/31 01:01:55;;;;;;;12.38;4.90;;;;;;;5.55;100.00;99215.63;4970594;28;20232;-76
2022/03/31 01:04:23;;;;;;;19.35;5.53;;;;;;;5.51;100.00;99213.84;4978525;28;20229;-76
2022/03/31 01:06:52;;;;;;;8.07;3.10;;;;;;;5.53;100.00;99206.00;4970282;28;20236;-76
2022/03/31 01:09:21;;;;;;;12.65;3.85;;;;;;;5.50;100.00;99198.09;4970006;28;20595;-76
2022/03/31 01:11:49;;;;;;;9.40;2.72;;;;;;;5.47;100.00;99194.59;4969959;28;20216;-76
2022/03/31 01:14:17;;;;;;;12.27;3.80;;;5.20;99.90;;;5.48;100.00;99190.22;4962079;28;20230;-76
2022/03/31 01:16:45;;;;;;;13.27;4.18;;;5.30;99.90;;;5.47;100.00;99185.84;4977551;28;20205;-76
2022/03/31 01:19:14;;;;;;;5.43;3.38;;;;;;;5.48;100.00;99184.97;4990670;28;20213;-76
2022/03/31 01:21:45;;;;;;;8.75;4.20;;;5.60;99.90;;;5.43;100.00;99182.31;4978308;28;20211;-76
2022/03/31 01:24:14;;;;;;;6.32;2.53;;;;;;;5.41;100.00;99186.66;4969973;28;20234;-76
2022/03/31 01:26:42;;;;;;;6.30;2.28;;;;;;;5.41;100.00;99191.03;4973687;28;20225;-76
2022/03/31 01:29:11;;;;;;;10.57;4.32;;;5.80;99.90;;;5.41;100.00;99191.03;4971912;28;20197;-76
2022/03/31 01:31:39;;;;;;;8.60;4.85;;;;;;;5.42;100.00;99182.31;4973773;28;20210;-76
2022/03/31 01:34:08;;;;;;;7.32;4.15;;;5.60;99.90;;;5.42;100.00;99177.06;4965524;28;20228;-76
2022/03/31 01:36:37;;;;;;;9.05;4.45;;;;;;;5.38;100.00;99170.91;4966895;28;20205;-76
2022/03/31 01:39:05;;;;;;;18.63;9.13;;;5.60;99.90;;;5.37;100.00;99177.00;4966120;28;20236;-77
2022/03/31 01:41:34;;;;;;;9.85;6.90;;;;;;;5.41;100.00;99170.94;4973367;28;20217;-76
2022/03/31 01:44:03;;;;;;;8.05;6.15;;;5.40;99.90;;;5.37;100.00;99179.63;4966305;28;20249;-76
2022/03/31 01:46:31;;;;;;;14.13;9.40;;;;;;;5.38;100.00;99165.66;4970329;28;20684;-76
2022/03/31 01:49:00;;;;;;;14.15;8.13;;;;;;;5.36;100.00;99164.78;4962849;28;20221;-77
2022/03/31 01:51:28;;;;;;;21.42;11.02;;;;;;;5.32;100.00;99164.72;4969654;28;20204;-76
2022/03/31 01:53:56;;;;;;;14.13;7.28;;;;;;;5.33;100.00;99175.22;4965495;28;20234;-76
2022/03/31 01:56:25;;;;;;;8.40;5.60;;;;;;;5.34;100.00;99173.47;4974869;28;20212;-76
2022/03/31 01:58:53;;;;;;;9.73;7.72;;;5.50;99.90;;;5.32;100.00;99170.84;4974152;28;20213;-76
2022/03/31 02:01:21;;;;;;;9.32;6.78;;;;;;;5.33;100.00;99180.47;4966712;28;20206;-76
2022/03/31 02:03:49;;;;;;;11.50;8.23;;;;;;;5.29;100.00;99173.44;4964458;28;20222;-76
2022/03/31 02:06:17;;;;;;;17.38;9.27;;;;;;;5.32;100.00;99177.84;4970493;28;20213;-77
2022/03/31 02:08:46;;;;;;;9.00;6.35;;;;;;;5.30;100.00;99182.19;4962324;28;20241;-77
2022/03/31 02:11:14;;;;;;;12.77;6.40;;;;;;;5.30;100.00;99188.31;4972560;28;20209;-78
2022/03/31 02:13:43;;;;;;;5.78;2.95;;;;;;;5.30;100.00;99195.28;4965495;28;20252;-78
2022/03/31 02:16:11;;;;;;;15.73;4.88;;;;;;;5.32;100.00;99188.31;4966426;28;20210;-77
2022/03/31 02:18:39;;;;;;;8.10;2.85;;;;;;;5.35;100.00;99185.72;4982045;28;20197;-77
2022/03/31 02:21:08;;;;;;;18.58;4.15;;;;;;;5.33;100.00;99185.72;4971333;28;21267;-77
2022/03/31 02:23:36;;;;;;;16.48;3.95;;;;;;;5.38;100.00;99177.91;4985993;28;20222;-77
2022/03/31 02:26:04;;;;;;;5.18;1.30;;;;;;;5.39;100.00;99177.91;4973726;28;20229;-77
2022/03/31 02:28:32;;;;;;;9.50;2.13;;;;;;;5.35;100.00;99173.50;4969077;28;20232;-77
2022/03/31 02:31:00;;;;;;;9.63;2.25;;;;;;;5.41;100.00;99172.69;4991633;28;20208;-77
2022/03/31 02:33:29;;;;;;;3.63;1.20;;;;;;;5.35;100.00;99172.63;4970371;28;20232;-77
2022/03/31 02:35:57;;;;;;;8.65;2.20;;;;;;;5.38;100.00;99162.16;4979739;28;20213;-77
2022/03/31 02:38:25;;;;;;;9.52;2.38;;;;;;;5.38;100.00;99157.81;4974624;28;20212;-77
2022/03/31 02:40:53;;;;;;;10.55;2.42;;;;;;;5.40;100.00;99153.44;4968265;28;20197;-77
2022/03/31 02:43:22;;;;;;;18.00;3.65;;;;;;;5.36;100.00;99151.66;4969857;28;20213;-77
2022/03/31 02:45:50;;;;;;;15.63;3.53;;;;;;;5.35;100.00;99149.03;4970721;28;20212;-77
2022/03/31 02:48:18;;;;;;;8.57;1.98;;;;;;;5.36;100.00;99148.16;4964304;28;20245;-77
2022/03/31 02:50:46;;;;;;;5.13;1.50;;;5.50;99.90;;;5.32;100.00;99149.88;4969848;28;20206;-77
2022/03/31 02:56:01;;;;;;;8.68;3.55;;;;;;;5.29;100.00;99141.09;4964001;28;20210;-77
2022/03/31 02:58:30;;;;;;;10.48;2.38;;;;;;;5.28;100.00;99152.44;4968896;28;20221;-77
2022/03/31 03:00:58;;;;;;;20.50;4.30;;;;;;;5.29;100.00;99152.47;4960011;28;20202;-77
2022/03/31 03:03:29;;;;;;;11.30;2.60;;;;;;;5.35;100.00;99155.16;4975630;28;20213;-77
2022/03/31 03:05:57;;;;;;;7.07;1.60;;;;;;;5.33;100.00;99149.00;4965010;28;20197;-77
2022/03/31 03:08:31;;;;;;;12.95;2.67;;;;;;;5.34;100.00;99149.88;4967885;28;20237;-77
2022/03/31 03:11:00;;;;;;;10.75;2.42;;;;;;;5.32;100.00;99151.63;4970276;28;20662;-78
2022/03/31 03:13:28;;;;;;;7.63;1.77;;;;;;;5.28;100.00;99155.06;4971024;28;20224;-77
2022/03/31 03:15:57;;;;;;;15.43;3.03;;;;;;;5.27;100.00;99146.34;4972372;28;20218;-77
2022/03/31 03:18:25;;;;;;;16.50;3.13;;;;;;;5.23;100.00;99144.53;4976161;28;20205;-77
2022/03/31 03:20:53;;;;;;;13.15;2.80;;;;;;;5.28;100.00;99149.84;4968903;28;20759;-77
2022/03/31 03:23:21;;;;;;;17.40;3.67;;;;;;;5.23;100.00;99147.16;4970995;28;20209;-77
2022/03/31 03:25:49;;;;;;;6.13;1.52;;;;;;;5.19;100.00;99141.84;4973715;28;20202;-77
2022/03/31 03:28:17;;;;;;;12.05;2.67;;;;;;;5.25;100.00;99141.94;4974061;28;20239;-77
2022/03/31 03:30:46;;;;;;;7.07;1.58;;;;;;;5.27;100.00;99132.34;4971345;28;20205;-77
2022/03/31 03:33:14;;;;;;;12.20;2.38;;;;;;;5.27;100.00;99132.34;4959662;28;20217;-77
2022/03/31 03:35:42;;;;;;;8.60;1.98;;;;;;;5.21;100.00;99121.81;4977543;28;20228;-78
2022/03/31 03:38:10;;;;;;;6.38;1.48;;;;;;;5.26;100.00;99122.72;4966043;28;20282;-77
2022/03/31 03:40:39;;;;;;;10.23;2.20;;;5.30;99.90;;;5.19;100.00;99119.13;4968634;28;20210;-77
2022/03/31 03:43:09;;;;;;;18.35;3.75;;;5.50;99.90;;;5.23;100.00;99120.97;4971963;28;20217;-77
2022/03/31 03:45:38;;;;;;;6.05;1.45;;;;;;;5.21;100.00;99114.81;4973844;28;20561;-77
2022/03/31 03:48:07;;;;;;;12.27;2.53;;;5.60;99.90;;;5.17;100.00;99114.75;4969171;28;20232;-77
2022/03/31 03:50:36;;;;;;;13.13;2.65;;;;;;;5.14;100.00;99108.63;4965566;28;20213;-77
2022/03/31 03:53:05;;;;;;;6.07;1.42;;;5.50;99.90;;;5.17;100.00;99113.00;4970800;28;20217;-77
2022/03/31 03:55:37;;;;;;;16.02;3.28;;;5.40;99.90;;;5.17;100.00;99112.13;4970759;28;20209;-77
2022/03/31 03:58:05;;;;;;;7.88;1.83;;;4.90;99.90;;;5.12;100.00;99117.31;4969347;28;20220;-77
2022/03/31 04:00:34;;;;;;;11.02;2.30;;;;;;;5.10;100.00;99124.28;4970206;28;20206;-77
2022/03/31 04:03:03;;;;;;;14.63;2.90;;;;;;;5.13;100.00;99124.31;4968356;28;20201;-77
2022/03/31 04:05:31;;;;;;;10.10;2.00;;;;;;;5.10;100.00;99126.91;4965329;28;20229;-77
2022/03/31 04:08:00;;;;;;;10.38;2.22;;;;;;;5.11;100.00;99126.06;4962812;28;20693;-77
2022/03/31 04:10:28;;;;;;;29.17;5.55;;;;;;;5.10;100.00;99125.16;4977658;28;20216;-78
2022/03/31 04:12:56;;;;;;;17.98;3.40;;;;;;;5.10;100.00;99132.16;4967992;28;20213;-78
2022/03/31 04:15:24;;;;;;;19.42;3.85;;;5.60;99.90;;;5.11;100.00;99134.78;4969943;28;20218;-78
2022/03/31 04:17:54;;;;;;;10.60;2.33;;;;;;;4.97;100.00;99118.06;4962641;28;20206;-78
2022/03/31 04:20:22;;;;;;;26.48;5.22;;;5.40;99.90;;;5.05;100.00;99120.75;4970656;28;20208;-78
2022/03/31 04:22:57;;;;;;;18.25;3.47;;;;;;;5.01;100.00;99129.44;4972139;28;20222;-78
2022/03/31 04:25:29;;;;;;;25.23;4.88;;;;;;;5.03;100.00;99135.56;4967220;28;20227;-77
2022/03/31 04:27:57;;;;;;;21.17;4.32;;;;;;;5.03;100.00;99131.22;4968922;28;20215;-79
2022/03/31 04:30:26;;;;;;;8.27;1.80;;;;;;;5.06;100.00;99140.84;4975891;28;20278;-78
2022/03/31 04:32:55;;;;;;;19.02;3.72;;;;;;;5.08;100.00;99147.88;4967810;28;20212;-77
2022/03/31 04:35:23;;;;;;;19.38;3.78;;;;;;;5.08;100.00;99140.00;4969278;28;20217;-78
2022/03/31 04:37:51;;;;;;;24.52;4.70;;;;;;;5.14;100.00;99145.31;4966803;28;20205;-78
2022/03/31 04:40:20;;;;;;;28.05;15.20;;;;;;;5.21;100.00;99156.75;4988063;28;20573;-78
2022/03/31 04:42:48;;;;;;;10.68;2.30;;;;;;;5.22;100.00;99166.38;4962156;28;20688;-77
2022/03/31 04:45:17;;;;;;;10.85;2.25;;;;;;;5.17;100.00;99161.91;4980950;28;20235;-77
2022/03/31 04:47:45;;;;;;;11.75;2.33;;;;;;;5.19;100.00;99166.31;4979365;28;20198;-77
2022/03/31 04:50:14;;;;;;;16.58;3.50;;;5.40;99.90;;;5.18;100.00;99155.81;4977724;28;20232;-77
2022/03/31 04:52:43;;;;;;;15.80;3.42;;;5.40;99.90;;;5.07;100.00;99158.31;4973163;28;20220;-77
2022/03/31 04:55:11;;;;;;;18.42;3.70;;;;;;;5.18;100.00;99166.28;4978400;28;20229;-77
2022/03/31 04:57:40;;;;;;;8.57;1.88;;;;;;;5.20;100.00;99178.59;4976839;28;20662;-77
2022/03/31 05:00:09;;;;;;;15.48;3.35;;;5.60;99.90;;;5.17;100.00;99175.03;4976216;28;20223;-77
2022/03/31 05:02:37;;;;;;;12.63;2.75;;;;;;;5.19;100.00;99183.78;4969652;28;20562;-77
2022/03/31 05:05:06;;;;;;;7.70;1.73;;;5.00;99.90;;;5.17;100.00;99181.13;4980786;28;20225;-77
2022/03/31 05:07:34;;;;;;;10.55;2.53;;;5.40;99.90;;;5.21;100.00;99190.81;4970422;28;20206;-78
2022/03/31 05:10:03;;;;;;;7.95;2.03;;;;;;;5.23;100.00;99189.09;4974913;28;20232;-78
2022/03/31 05:12:34;;;;;;;16.38;5.28;;;;;;;5.20;100.00;99193.41;4984350;28;20204;-78
2022/03/31 05:15:04;;;;;;;23.90;7.07;;;;;;;5.13;100.00;99180.22;4979364;28;20221;-78
2022/03/31 05:17:58;;;;;;;20.88;7.40;;;5.40;99.90;;;5.10;100.00;99174.06;4972385;28;20198;-79
2022/03/31 05:20:30;;;;;;;17.88;9.45;;;;;;;5.09;100.00;99146.13;4976099;28;20216;-78
2022/03/31 05:22:59;;;;;;;14.90;13.55;;;;;;;4.99;100.00;99129.44;4979773;28;20213;-78
2022/03/31 05:25:27;;;;;;;25.92;23.35;;;;;;;5.00;100.00;99120.72;4982662;28;20233;-77
2022/03/31 05:28:00;;;;;;;21.42;11.18;;;;;;;5.07;100.00;99121.66;4984067;28;20696;-78
2022/03/31 05:30:28;;;;;;;20.38;17.38;;;;;;;5.13;100.00;99112.09;4993063;28;20247;-78
2022/03/31 05:32:56;;;;;;;8.60;2.97;;;;;;;5.22;100.00;99102.59;4990181;28;20657;-78
2022/03/31 05:35:26;;;;;;;9.32;2.17;;;;;;;5.18;100.00;99091.19;4978498;28;20227;-78
2022/03/31 05:37:54;;;;;;;9.93;1.98;;;;;;;5.20;100.00;99092.09;4975035;28;20205;-78
2022/03/31 05:40:24;;;;;;;14.85;2.80;;;5.40;99.90;;;5.15;100.00;99085.91;4980049;28;20228;-78
2022/03/31 05:42:55;;;;;;;14.77;2.85;;;;;;;5.03;100.00;99070.06;5004474;28;20322;-78
2022/03/31 05:45:29;;;;;;;10.82;2.15;;;;;;;5.00;100.00;99070.06;5039890;28;20720;-77
2022/03/31 05:47:57;;;;;;;8.50;1.85;;;5.30;99.90;;;5.05;100.00;99063.13;5037920;28;20203;-78
2022/03/31 05:50:25;;;;;;;8.98;1.98;;;;;;;5.17;100.00;99070.19;5032069;28;20234;-76
2022/03/31 05:52:54;;;;;;;8.02;1.77;;;;;;;5.27;100.00;99082.56;5054280;28;20213;-77
2022/03/31 05:55:23;;;;;;;7.03;1.60;;;;;;;5.17;100.00;99064.97;5054236;28;20218;-77
2022/03/31 05:57:51;;;;;;;6.53;1.52;;;;;;;5.05;100.00;99043.03;5054130;28;20194;-76
2022/03/31 06:00:20;;;;;;;9.65;1.98;;;5.30;99.90;;;5.07;100.00;99033.44;5037045;28;20211;-77
2022/03/31 06:02:50;;;;;;;11.10;2.28;;;;;;;5.04;100.00;99022.94;5015038;28;20212;-76
2022/03/31 06:05:20;;;;;;;9.50;1.95;;;;;;;5.17;100.00;99021.28;5039505;28;20232;-77
2022/03/31 06:07:50;;;;;;;8.02;1.63;;;;;;;5.25;100.00;99029.25;5028214;28;20196;-77
2022/03/31 06:10:19;;;;;;;8.23;1.83;;;;;;;5.19;100.00;99030.03;5014631;28;20243;-77
2022/03/31 06:12:47;;;;;;;11.60;2.35;;;;;;;5.11;100.00;99016.88;5029254;28;20199;-77
2022/03/31 06:15:17;;;;;;;13.30;2.65;;;;;;;5.26;100.00;99023.13;5026999;28;20220;-77
2022/03/31 06:17:46;;;;;;;12.43;2.47;;;5.50;99.90;;;5.25;100.00;99024.88;5021222;28;20195;-77
2022/03/31 06:20:14;;;;;;;9.27;1.95;;;;;;;5.16;100.00;99019.53;5024608;28;20200;-78
2022/03/31 06:22:43;;;;;;;8.45;1.85;;;;;;;5.21;100.00;99019.59;5029748;28;20203;-77
2022/03/31 06:25:14;;;;;;;8.00;1.73;;;;;;;5.28;100.00;99019.66;5020752;28;20233;-77
2022/03/31 06:27:45;;;;;;;16.08;3.00;;;5.50;99.90;;;5.27;100.00;99020.53;5036395;28;20203;-77
2022/03/31 06:30:14;;;;;;;6.93;1.63;;;5.40;99.90;;;5.23;100.00;99008.28;5034134;28;20231;-77
2022/03/31 06:32:43;;;;;;;15.65;3.17;;;;;;;5.40;100.00;99016.25;5016541;28;20208;-78
2022/03/31 06:35:14;;;;;;;9.23;2.00;;;;;;;5.49;100.00;99015.44;5014091;28;20224;-77
2022/03/31 06:37:44;;;;;;;8.25;1.80;;;5.70;99.90;;;5.45;100.00;99004.94;5014354;28;20204;-77
2022/03/31 06:40:14;;;;;;;9.75;2.17;;;5.70;99.90;;;5.55;100.00;99010.22;5013927;28;20214;-77
2022/03/31 06:42:44;;;;;;;10.57;2.10;;;5.80;99.90;;;5.61;100.00;99011.16;5016798;28;20210;-78
2022/03/31 06:45:16;;;;;;;7.93;1.75;;;5.80;99.90;;;5.58;100.00;98991.91;5048092;23;20223;-83
2022/03/31 06:48:02;;;;;;;29.25;5.35;;;5.90;99.90;;;5.55;100.00;98990.13;5033933;28;20218;-83
2022/03/31 06:50:33;;;;;;;3.25;0.88;;;6.00;99.90;;;5.69;100.00;98998.06;5027961;28;20241;-83
2022/03/31 06:53:02;;;;;;;7.35;1.60;;;5.90;99.90;;;5.75;100.00;98998.13;5035447;28;20210;-83
2022/03/31 06:55:30;;;;;;;10.13;2.05;;;;;;;5.82;100.00;98993.78;5014529;28;20735;-84
2022/03/31 06:57:59;;;;;;;11.13;2.25;;;;;;;5.66;100.00;98972.72;5012521;28;20200;-84
2022/03/31 07:00:29;;;;;;;4.72;1.83;;;;;;;5.76;100.00;98968.38;5011278;28;20203;-81
2022/03/31 07:02:59;;;;;;;8.82;1.90;;;;;;;5.73;100.00;98961.38;5007675;28;20204;-81
2022/03/31 07:05:28;;;;;;;11.05;2.13;;;;;;;5.77;100.00;98968.41;5013673;28;20227;-81
2022/03/31 07:07:57;;;;;;;13.77;2.80;;;;;;;5.81;100.00;98965.78;4997760;28;20199;-81
2022/03/31 07:10:25;;;;;;;17.10;3.42;;;;;;;5.66;100.00;98936.00;5016848;28;20223;-82
2022/03/31 07:12:53;;;;;;;13.85;2.70;;;;;;;5.77;100.00;98947.41;5002465;28;20205;-82
2022/03/31 07:15:22;;;;;;;21.55;3.90;;;;;;;5.78;100.00;98943.91;5018951;28;20235;-84
2022/03/31 07:17:50;;;;;;;20.50;3.75;;;;;;;5.90;100.00;98964.13;4989359;28;20200;-81
2022/03/31 07:20:19;;;;;;;17.45;3.33;;;;;;;5.67;100.00;98937.75;5000881;28;20212;-83
2022/03/31 07:22:47;;;;;;;10.15;2.03;;;6.20;99.90;;;5.80;100.00;98954.41;5001892;28;20201;-82
2022/03/31 07:25:16;;;;;;;7.50;1.63;;;;;;;5.79;100.00;98952.66;5016822;28;20232;-83
2022/03/31 07:27:45;;;;;;;22.65;4.13;;;;;;;5.75;100.00;98938.66;5015064;28;20204;-81
2022/03/31 07:30:16;;;;;;;9.32;1.90;;;;;;;5.93;100.00;98955.38;5013218;28;20228;-81
2022/03/31 07:32:58;;;;;;;5.82;1.33;;;6.20;99.90;;;5.86;100.00;98941.31;5016286;28;20211;-82
2022/03/31 07:35:30;;;;;;;22.30;4.43;;;6.20;99.90;;;5.78;100.00;98933.44;5011783;28;20232;-82
2022/03/31 07:38:03;;;;;;;15.23;2.90;;;6.20;99.90;;;5.86;100.00;98950.94;5009728;28;20215;-84
2022/03/31 07:40:32;;;;;;;11.10;2.13;;;6.10;99.90;;;5.78;100.00;98938.69;5006032;28;20211;-83
2022/03/31 07:43:02;;;;;;;17.20;3.17;;;;;;;5.84;100.00;98940.44;5014434;28;20689;-83
2022/03/31 07:45:34;;;;;;;15.85;2.95;;;;;;;5.86;100.00;98936.09;5011787;28;20688;-83
2022/03/31 07:48:04;;;;;;;10.45;2.10;;;6.30;99.90;;;5.93;100.00;98935.25;5011065;28;20203;-84
2022/03/31 07:50:34;;;;;;;27.40;5.00;;;;;;;6.03;100.00;98934.44;5007795;28;20243;-83
2022/03/31 07:53:06;;;;;;;16.33;3.00;;;;;;;6.01;100.00;98925.66;4998948;28;20699;-83
2022/03/31 07:55:35;;;;;;;9.82;2.00;;;;;;;6.18;100.00;98943.22;5014004;28;20212;-82
2022/03/31 07:58:03;;;;;;;21.88;3.85;;;;;;;6.15;100.00;98944.09;5006119;28;20219;-82
2022/03/31 08:00:31;;;;;;;8.35;1.92;;;;;;;5.94;100.00;98907.28;5018073;28;20199;-82
2022/03/31 08:03:01;;;;;;;7.53;1.50;;;;;;;6.08;100.00;98916.94;5016671;28;20204;-82
2022/03/31 08:05:30;;;;;;;8.52;1.70;;;;;;;6.13;100.00;98911.72;5015764;28;20232;-82
2022/03/31 08:07:58;;;;;;;12.82;2.50;;;;;;;6.14;100.00;98916.09;5022738;28;20566;-82
2022/03/31 08:10:27;;;;;;;14.13;2.72;;;;;;;6.17;100.00;98918.72;5012758;28;20225;-81
2022/03/31 08:12:56;;;;;;;13.25;2.50;;;;;;;6.25;100.00;98930.09;5015042;28;20212;-81
2022/03/31 08:15:25;;;;;;;11.20;2.17;;;;;;;6.40;100.00;98929.25;5029826;28;20235;-81
2022/03/31 08:17:54;;;;;;;21.15;3.97;;;;;;;6.43;100.00;98913.50;5014697;28;20196;-83
2022/03/31 08:20:22;;;;;;;11.20;2.28;;;;;;;6.39;100.00;98898.63;5013750;28;20215;-83
2022/03/31 08:22:51;;;;;;;17.05;3.20;;;;;;;6.70;100.00;98931.94;5016121;28;20203;-82
2022/03/31 08:25:20;;;;;;;15.77;2.97;;;;;;;6.58;100.00;98905.69;5014484;28;20224;-82
2022/03/31 08:27:48;;;;;;;10.65;2.13;;;;;;;6.72;100.00;98919.69;5014017;28;20204;-82
2022/03/31 08:30:21;;;;;;;7.18;1.60;;;;;;;6.57;100.00;98903.06;5011245;28;20220;-82
2022/03/31 08:32:50;;;;;;;13.63;3.17;;;;;;;6.63;100.00;98901.31;5002986;28;20218;-83
2022/03/31 08:35:19;;;;;;;14.32;2.70;;;;;;;6.18;100.00;98854.84;5015923;28;20227;-82
2022/03/31 08:37:48;;;;;;;15.68;2.97;;;;;;;6.49;100.00;98905.63;5017345;28;20207;-82
2022/03/31 08:40:17;;;;;;;17.02;3.15;;;;;;;6.53;100.00;98902.19;5017984;28;20209;-82
2022/03/31 08:42:46;;;;;;;12.65;2.40;;;;;;;6.66;100.00;98908.31;5006696;28;20208;-83
2022/03/31 08:45:17;;;;;;;15.68;2.92;;;7.10;99.90;;;6.70;100.00;98910.94;5014826;28;20250;-83
2022/03/31 08:47:50;;;;;;;11.88;2.38;;;7.20;99.90;;;6.86;100.00;98916.19;5017407;28;20208;-82
2022/03/31 08:50:21;;;;;;;15.70;3.05;;;7.30;99.90;;;6.97;100.00;98919.69;5001557;28;20227;-82
2022/03/31 08:52:50;;;;;;;15.27;2.83;;;;;;;6.80;100.00;98893.41;5010952;28;20227;-82
2022/03/31 08:55:19;;;;;;;18.98;3.50;;;;;;;6.89;100.00;98896.03;5020028;28;20235;-83
2022/03/31 08:57:52;;;;;;;12.00;2.28;;;7.30;99.90;;;6.82;100.00;98893.41;5020652;28;20214;-83
2022/03/31 09:00:23;;;;;;;18.33;3.30;;;7.10;99.90;;;6.57;100.00;98864.53;5019712;28;20196;-83
2022/03/31 09:03:04;;;;;;;18.27;3.67;;;7.10;99.90;;;6.58;100.00;98874.16;5016592;28;20204;-82
2022/03/31 09:05:45;;;;;;;7.65;1.50;;;7.00;99.90;;;6.70;100.00;98875.91;5023653;28;20219;-82
2022/03/31 09:08:16;;;;;;;11.35;2.50;;;7.20;99.90;;;6.85;100.00;98893.41;5006551;28;20215;-82
2022/03/31 09:10:49;;;;;;;12.52;2.38;;;7.20;99.90;;;6.70;100.00;98875.91;5018291;28;20227;-82
2022/03/31 09:13:32;;;;;;;22.25;4.05;;;7.30;99.90;;;7.09;100.00;98922.28;5007163;28;20235;-82
2022/03/31 09:16:06;;;;;;;23.40;4.35;;;7.50;99.90;;;7.23;100.00;98922.28;5003900;28;20212;-82
2022/03/31 09:18:36;;;;;;;21.25;4.03;;;7.40;99.90;;;6.97;100.00;98896.91;5005776;28;20215;-82
2022/03/31 09:21:10;;;;;;;25.90;4.88;;;7.50;99.90;;;7.24;100.00;98918.75;5008504;28;20706;-83
2022/03/31 09:23:46;;;;;;;21.95;4.28;;;7.50;99.90;;;7.16;100.00;98891.63;5005160;28;20223;-82
2022/03/31 09:26:17;;;;;;;24.50;4.55;;;7.60;99.90;;;7.31;100.00;98904.72;5003795;28;20220;-83
2022/03/31 09:28:46;;;;;;;20.45;4.40;;;7.70;99.90;;;7.34;100.00;98905.59;5010264;28;20220;-82
2022/03/31 09:31:26;;;;;;;24.88;4.80;;;7.60;99.90;;;7.06;100.00;98860.09;5007584;28;20227;-82
2022/03/31 09:33:57;;;;;;;19.90;3.80;;;7.50;99.90;;;7.19;100.00;98887.22;5004914;28;20228;-81
2022/03/31 09:36:26;;;;;;;17.50;3.28;;;;;;;7.48;100.00;98917.84;5013067;28;20208;-82
2022/03/31 09:38:55;;;;;;;41.00;7.30;;;;;;;7.56;100.00;98918.69;5026896;28;20214;-82
2022/03/31 09:41:30;;;;;;;11.75;2.40;;;7.50;99.90;;;6.87;100.00;98839.09;5003111;28;20230;-83
2022/03/31 09:44:04;;;;;;;25.38;4.68;;;7.50;99.90;;;7.34;100.00;98897.72;5002971;28;20231;-81
2022/03/31 09:46:39;;;;;;;17.67;3.47;;;7.60;99.90;;;7.42;100.00;98899.44;5005689;28;20214;-81
2022/03/31 09:49:14;;;;;;;16.15;3.33;;;7.70;99.90;;;7.51;100.00;98912.56;5008117;28;20211;-82
2022/03/31 09:51:47;;;;;;;18.50;3.45;;;7.80;99.90;;;7.42;100.00;98887.16;5009414;28;20239;-83
2022/03/31 09:54:16;;;;;;;11.50;2.25;;;;;;;7.58;100.00;98888.88;5013919;28;20247;-83
2022/03/31 09:56:45;;;;;;;16.80;4.22;;;;;;;7.52;100.00;98877.50;5014375;28;20215;-82
2022/03/31 09:59:16;;;;;;;8.07;1.63;;;7.90;99.90;;;7.63;100.00;98876.56;5009696;28;20209;-80
2022/03/31 10:01:53;;;;;;;12.85;2.45;;;;;;;7.36;100.00;98845.09;5011161;28;20200;-84
2022/03/31 10:04:21;;;;;;;23.92;4.20;;;;;;;7.48;100.00;98846.81;5009893;28;20235;-83
2022/03/31 10:06:56;;;;;;;14.20;2.75;;;7.90;99.90;;;7.56;100.00;98848.53;5013160;28;20207;-84
2022/03/31 10:09:25;;;;;;;24.02;4.55;;;;;;;7.74;100.00;98866.00;5025657;28;20212;-84
2022/03/31 10:12:13;;;;;;;9.20;1.90;;;8.00;99.90;;;7.70;100.00;98844.09;5022619;28;20246;-83
2022/03/31 10:14:44;;;;;;;13.10;2.53;;;;;;;7.52;100.00;98814.38;5023544;28;20220;-82
2022/03/31 10:17:13;;;;;;;22.20;4.07;;;;;;;7.55;100.00;98815.22;5028332;28;20212;-83
2022/03/31 10:19:46;;;;;;;20.88;3.90;;;8.00;99.90;;;7.86;100.00;98842.28;5011572;28;20208;-83
2022/03/31 10:25:14;;;;;;;13.40;2.58;;;7.90;99.90;;;7.72;100.00;98794.09;5009919;28;20223;-82
2022/03/31 10:27:50;;;;;;;15.80;3.20;;;8.10;99.90;;;8.00;100.00;98822.00;5011852;28;20218;-82
2022/03/31 10:30:23;;;;;;;13.55;2.58;;;8.20;99.90;;;7.72;100.00;98760.75;5013991;28;20218;-83
2022/03/31 10:33:03;;;;;;;12.90;2.47;;;8.20;99.90;;;7.95;100.00;98789.59;5010977;28;20228;-84
2022/03/31 10:35:41;;;;;;;16.92;3.15;;;8.20;99.90;;;7.98;100.00;98768.50;5008866;28;20224;-84
2022/03/31 10:38:23;;;;;;;18.70;3.55;;;8.40;99.90;;;7.93;100.00;98751.88;5006956;28;20215;-83
2022/03/31 10:41:01;;;;;;;15.70;3.08;;;8.30;99.90;;;7.95;100.00;98734.31;5010007;28;20204;-82
2022/03/31 10:43:46;;;;;;;10.93;2.22;;;8.30;99.90;;;8.06;100.00;98755.28;5009411;28;20700;-82
2022/03/31 10:46:18;;;;;;;15.02;2.88;;;8.40;99.90;;;8.12;100.00;98747.34;5007280;28;20218;-82
2022/03/31 10:48:56;;;;;;;17.73;3.28;;;8.40;99.90;;;7.88;100.00;98703.66;5004890;28;20812;-82
2022/03/31 10:51:42;;;;;;;13.35;3.00;;;8.30;99.90;;;7.77;100.00;98681.78;5012275;28;20227;-83
2022/03/31 10:54:23;;;;;;;19.83;3.63;;;8.30;99.90;;;8.00;100.00;98714.09;5010828;28;20230;-82
2022/03/31 10:57:07;;;;;;;16.30;3.00;;;8.30;99.90;;;8.05;100.00;98748.28;5014629;28;20208;-82
2022/03/31 10:59:36;;;;;;;18.73;3.53;;;8.40;99.90;;;8.16;100.00;98743.78;5013864;28;20220;-82
2022/03/31 11:02:16;;;;;;;15.85;3.08;;;8.40;99.90;;;8.08;100.00;98716.66;5015713;28;20204;-83
2022/03/31 11:04:56;;;;;;;8.98;1.80;;;8.40;99.90;;;8.09;100.00;98720.16;5015652;28;20231;-83
2022/03/31 11:07:26;;;;;;;18.27;3.33;;;8.40;99.90;;;7.95;100.00;98697.47;5013892;28;20208;-82
2022/03/31 11:10:12;;;;;;;18.27;3.38;;;8.30;99.90;;;7.99;100.00;98707.09;5023964;28;20687;-82
2022/03/31 11:12:42;;;;;;;15.90;2.85;;;8.30;99.90;;;7.81;100.00;98677.41;5025033;28;20243;-83
2022/03/31 11:15:16;;;;;;;17.75;3.20;;;8.20;99.90;;;7.65;100.00;98671.38;5011282;28;20235;-84
2022/03/31 11:17:45;;;;;;;16.58;3.00;;;;;;;7.59;100.00;98661.75;5008247;28;20216;-83
2022/03/31 11:20:24;;;;;;;28.85;5.10;;;7.90;99.90;;;7.56;100.00;98658.28;5012469;28;20208;-83